createdAt,value
2022-11-23T00:01:32.945Z,4.80
2022-11-23T00:04:04.102Z,4.70
2022-11-23T00:06:30.988Z,4.70
2022-11-23T00:08:58.028Z,4.60
2022-11-23T00:11:26.121Z,4.60
2022-11-23T00:13:53.523Z,4.60
2022-11-23T00:16:25.994Z,4.70
2022-11-23T00:18:57.242Z,4.70
2022-11-23T00:21:25.768Z,4.80
2022-11-23T00:23:52.513Z,4.80
2022-11-23T00:26:22.618Z,4.80
2022-11-23T00:28:49.652Z,4.90
2022-11-23T00:31:19.842Z,4.90
2022-11-23T00:33:55.154Z,5.00
2022-11-23T00:36:23.853Z,5.00
2022-11-23T00:38:51.948Z,5.00
2022-11-23T00:41:21.731Z,5.00
2022-11-23T00:43:48.930Z,5.00
2022-11-23T00:46:17.406Z,5.00
2022-11-23T00:48:45.676Z,5.10
2022-11-23T00:51:15.362Z,5.00
2022-11-23T00:53:42.855Z,5.10
2022-11-23T00:56:09.948Z,5.10
2022-11-23T00:58:38.833Z,5.10
2022-11-23T01:01:14.618Z,5.00
2022-11-23T01:03:47.032Z,5.10
2022-11-23T01:06:27.933Z,5.10
2022-11-23T01:08:57.332Z,5.10
2022-11-23T01:11:26.676Z,5.10
2022-11-23T01:13:53.662Z,5.10
2022-11-23T01:16:26.592Z,5.10
2022-11-23T01:18:58.041Z,5.10
2022-11-23T01:21:26.484Z,5.10
2022-11-23T01:23:53.911Z,5.10
2022-11-23T01:26:21.099Z,5.20
2022-11-23T01:28:51.062Z,5.20
2022-11-23T01:31:20.532Z,5.20
2022-11-23T01:33:47.472Z,5.20
2022-11-23T01:36:19.554Z,5.10
2022-11-23T01:38:47.848Z,5.20
2022-11-23T01:41:17.376Z,5.20
2022-11-23T01:43:44.356Z,5.20
2022-11-23T01:46:20.395Z,5.20
2022-11-23T01:48:57.312Z,5.20
2022-11-23T01:51:32.141Z,5.20
2022-11-23T01:54:02.437Z,5.30
2022-11-23T01:56:33.138Z,5.30
2022-11-23T01:59:04.285Z,5.30
2022-11-23T02:01:31.767Z,5.30
2022-11-23T02:04:00.748Z,5.30
2022-11-23T02:06:27.937Z,5.40
2022-11-23T02:08:55.461Z,5.40
2022-11-23T02:11:22.248Z,5.40
2022-11-23T02:13:50.880Z,5.40
2022-11-23T02:16:19.170Z,5.40
2022-11-23T02:18:48.367Z,5.50
2022-11-23T02:21:15.239Z,5.40
2022-11-23T02:24:03.472Z,5.50
2022-11-23T02:26:33.196Z,5.50
2022-11-23T02:29:22.171Z,5.50
2022-11-23T02:31:49.017Z,5.50
2022-11-23T02:34:17.213Z,5.50
2022-11-23T02:36:53.013Z,5.50
2022-11-23T02:39:44.755Z,5.50
2022-11-23T02:42:11.535Z,5.50
2022-11-23T02:45:00.770Z,5.50
2022-11-23T02:47:27.579Z,5.50
2022-11-23T02:49:54.398Z,5.50
2022-11-23T02:52:21.125Z,5.50
2022-11-23T02:54:47.934Z,5.50
2022-11-23T02:57:15.011Z,5.40
2022-11-23T02:59:41.686Z,5.40
2022-11-23T03:02:08.442Z,5.40
2022-11-23T03:04:35.134Z,5.40
2022-11-23T03:07:01.857Z,5.40
2022-11-23T03:09:31.212Z,5.40
2022-11-23T03:11:58.044Z,5.40
2022-11-23T03:14:27.791Z,5.40
2022-11-23T03:16:54.725Z,5.40
2022-11-23T03:19:21.496Z,5.40
2022-11-23T03:21:48.274Z,5.40
2022-11-23T03:24:15.303Z,5.40
2022-11-23T03:26:41.962Z,5.40
2022-11-23T03:29:14.770Z,5.40
2022-11-23T03:31:41.538Z,5.40
2022-11-23T03:34:10.184Z,5.40
2022-11-23T03:36:36.958Z,5.40
2022-11-23T03:39:03.973Z,5.40
2022-11-23T03:41:30.666Z,5.30
2022-11-23T03:43:59.442Z,5.40
2022-11-23T03:46:31.649Z,5.30
2022-11-23T03:48:58.314Z,5.30
2022-11-23T03:51:25.231Z,5.40
2022-11-23T03:53:51.950Z,5.40
2022-11-23T03:56:18.667Z,5.40
2022-11-23T03:58:45.535Z,5.30
2022-11-23T04:01:15.013Z,5.40
2022-11-23T04:03:41.860Z,5.40
2022-11-23T04:06:11.435Z,5.30
2022-11-23T04:08:38.123Z,5.40
2022-11-23T04:11:04.902Z,5.40
2022-11-23T04:13:31.574Z,5.40
2022-11-23T04:15:58.210Z,5.40
2022-11-23T04:18:24.906Z,5.50
2022-11-23T04:20:51.639Z,5.40
2022-11-23T04:23:18.337Z,5.40
2022-11-23T04:25:46.213Z,5.50
2022-11-23T04:28:12.865Z,5.50
2022-11-23T04:30:42.465Z,5.50
2022-11-23T04:33:09.164Z,5.40
2022-11-23T04:35:37.150Z,5.40
2022-11-23T04:38:06.443Z,5.50
2022-11-23T04:40:33.228Z,5.50
2022-11-23T04:43:01.817Z,5.40
2022-11-23T04:45:31.769Z,5.40
2022-11-23T04:47:58.419Z,5.40
2022-11-23T04:50:25.267Z,5.40
2022-11-23T04:52:52.077Z,5.40
2022-11-23T04:55:18.761Z,5.40
2022-11-23T04:57:47.807Z,5.40
2022-11-23T05:00:15.111Z,5.40
2022-11-23T05:02:41.965Z,5.40
2022-11-23T05:05:10.154Z,5.40
2022-11-23T05:07:36.929Z,5.40
2022-11-23T05:10:04.586Z,5.40
2022-11-23T05:12:31.409Z,5.40
2022-11-23T05:14:58.365Z,5.40
2022-11-23T05:17:25.163Z,5.50
2022-11-23T05:19:52.009Z,5.50
2022-11-23T05:22:18.731Z,5.40
2022-11-23T05:24:45.403Z,5.40
2022-11-23T05:27:12.494Z,5.50
2022-11-23T05:29:40.359Z,5.50
2022-11-23T05:32:07.399Z,5.50
2022-11-23T05:34:34.272Z,5.50
2022-11-23T05:37:00.961Z,5.50
2022-11-23T05:39:27.934Z,5.40
2022-11-23T05:41:57.528Z,5.40
2022-11-23T05:44:24.270Z,5.40
2022-11-23T05:46:50.939Z,5.40
2022-11-23T05:49:17.793Z,5.40
2022-11-23T05:51:47.611Z,5.40
2022-11-23T05:54:14.412Z,5.40
2022-11-23T05:56:41.127Z,5.40
2022-11-23T05:59:08.016Z,5.50
2022-11-23T06:01:37.559Z,5.50
2022-11-23T06:04:06.504Z,5.50
2022-11-23T06:06:36.252Z,5.50
2022-11-23T06:09:02.995Z,5.50
2022-11-23T06:11:31.198Z,5.50
2022-11-23T06:13:58.134Z,5.50
2022-11-23T06:16:24.826Z,5.50
2022-11-23T06:18:51.584Z,5.50
2022-11-23T06:21:18.317Z,5.50
2022-11-23T06:23:47.676Z,5.50
2022-11-23T06:26:14.332Z,5.50
2022-11-23T06:28:49.573Z,5.50
2022-11-23T06:31:16.276Z,5.50
2022-11-23T06:33:43.044Z,5.50
2022-11-23T06:36:11.187Z,5.50
2022-11-23T06:38:38.027Z,5.50
2022-11-23T06:41:05.033Z,5.50
2022-11-23T06:43:34.724Z,5.40
2022-11-23T06:46:05.424Z,5.50
2022-11-23T06:48:32.546Z,5.40
2022-11-23T06:51:00.228Z,5.40
2022-11-23T06:53:28.379Z,5.30
2022-11-23T06:56:01.844Z,5.30
2022-11-23T06:58:28.932Z,5.40
2022-11-23T07:01:00.801Z,5.30
2022-11-23T07:03:28.104Z,5.40
2022-11-23T07:05:55.237Z,5.30
2022-11-23T07:08:22.275Z,5.30
2022-11-23T07:10:49.073Z,5.40
2022-11-23T07:13:15.908Z,5.40
2022-11-23T07:15:43.553Z,5.40
2022-11-23T07:18:12.057Z,5.40
2022-11-23T07:20:38.941Z,5.40
2022-11-23T07:23:09.941Z,5.50
2022-11-23T07:25:38.225Z,5.50
2022-11-23T07:28:07.081Z,5.50
2022-11-23T07:30:35.243Z,5.50
2022-11-23T07:33:08.294Z,5.60
2022-11-23T07:35:39.005Z,5.60
2022-11-23T07:38:08.932Z,5.60
2022-11-23T07:40:39.473Z,5.70
2022-11-23T07:43:09.129Z,5.70
2022-11-23T07:45:36.912Z,5.80
2022-11-23T07:48:06.343Z,5.80
2022-11-23T07:50:33.977Z,5.90
2022-11-23T07:53:02.341Z,5.90
2022-11-23T07:55:30.655Z,6.00
2022-11-23T07:57:57.915Z,6.00
2022-11-23T08:00:26.423Z,6.00
2022-11-23T08:03:25.701Z,6.00
2022-11-23T08:05:40.979Z,6.00
2022-11-23T08:08:07.637Z,6.10
2022-11-23T08:10:38.746Z,6.10
2022-11-23T08:13:08.666Z,6.10
2022-11-23T08:15:38.198Z,6.10
2022-11-23T08:18:05.471Z,6.10
2022-11-23T08:20:33.547Z,6.20
2022-11-23T08:23:00.557Z,6.20
2022-11-23T08:25:28.779Z,6.20
2022-11-23T08:27:56.408Z,6.30
2022-11-23T08:30:23.174Z,6.40
2022-11-23T08:32:50.023Z,6.60
2022-11-23T08:35:16.895Z,6.80
2022-11-23T08:37:43.600Z,6.90
2022-11-23T08:40:10.999Z,7.10
2022-11-23T08:42:37.698Z,7.30
2022-11-23T08:45:05.570Z,7.30
2022-11-23T08:47:33.685Z,7.60
2022-11-23T08:50:01.033Z,7.60
2022-11-23T08:52:27.949Z,7.80
2022-11-23T08:54:54.701Z,7.90
2022-11-23T08:57:24.452Z,7.90
2022-11-23T08:59:51.158Z,7.90
2022-11-23T09:02:17.826Z,8.10
2022-11-23T09:04:44.598Z,8.20
2022-11-23T09:07:11.595Z,8.10
2022-11-23T09:09:43.513Z,8.00
2022-11-23T09:12:10.252Z,8.10
2022-11-23T09:14:36.979Z,8.30
2022-11-23T09:17:04.052Z,8.40
2022-11-23T09:19:30.783Z,8.50
2022-11-23T09:21:58.036Z,8.50
2022-11-23T09:24:25.842Z,8.70
2022-11-23T09:26:52.587Z,8.70
2022-11-23T09:29:19.336Z,8.50
2022-11-23T09:31:46.042Z,8.50
2022-11-23T09:34:16.318Z,8.50
2022-11-23T09:36:43.008Z,8.60
2022-11-23T09:39:09.762Z,8.70
2022-11-23T09:42:02.379Z,8.70
2022-11-23T09:44:43.967Z,8.90
2022-11-23T09:47:40.554Z,9.00
2022-11-23T09:50:07.234Z,8.90
2022-11-23T09:52:36.172Z,9.10
2022-11-23T09:55:15.760Z,9.20
2022-11-23T09:57:45.746Z,9.20
2022-11-23T10:00:23.669Z,9.40
2022-11-23T10:02:52.528Z,9.60
2022-11-23T10:05:27.345Z,9.60
2022-11-23T10:08:00.071Z,9.50
2022-11-23T10:10:36.999Z,9.50
2022-11-23T10:13:23.139Z,9.70
2022-11-23T10:16:16.030Z,9.90
2022-11-23T10:18:58.242Z,9.90
2022-11-23T10:21:49.896Z,9.80
2022-11-23T10:24:20.028Z,10.00
2022-11-23T10:26:49.720Z,10.50
2022-11-23T10:29:26.873Z,10.50
2022-11-23T10:31:57.207Z,10.80
2022-11-23T10:34:41.600Z,11.00
2022-11-23T10:37:17.357Z,11.10
2022-11-23T10:39:44.268Z,11.00
2022-11-23T10:42:36.202Z,10.80
2022-11-23T10:45:04.510Z,10.70
2022-11-23T10:47:49.106Z,10.80
2022-11-23T10:50:20.735Z,11.10
2022-11-23T10:52:52.649Z,11.30
2022-11-23T10:55:22.564Z,11.40
2022-11-23T10:57:49.251Z,11.50
2022-11-23T11:00:18.747Z,11.80
2022-11-23T11:02:48.010Z,11.70
2022-11-23T11:05:46.393Z,11.60
2022-11-23T11:08:21.606Z,11.30
2022-11-23T11:11:05.482Z,11.60
2022-11-23T11:13:41.645Z,11.60
2022-11-23T11:16:48.200Z,11.80
2022-11-23T11:19:35.987Z,11.40
2022-11-23T11:22:24.511Z,11.30
2022-11-23T11:24:51.341Z,11.40
2022-11-23T11:27:23.127Z,11.30
2022-11-23T11:30:16.655Z,11.30
2022-11-23T11:33:11.176Z,11.40
2022-11-23T11:35:43.479Z,11.70
2022-11-23T11:38:29.673Z,11.70
2022-11-23T11:40:58.881Z,11.90
2022-11-23T11:43:49.820Z,11.70
2022-11-23T11:46:30.379Z,11.70
2022-11-23T11:49:20.926Z,11.50
2022-11-23T11:52:15.505Z,11.60
2022-11-23T11:55:04.435Z,11.60
2022-11-23T11:57:46.739Z,11.50
2022-11-23T12:00:18.362Z,11.50
2022-11-23T12:03:09.074Z,11.50
2022-11-23T12:05:49.066Z,11.40
2022-11-23T12:08:43.609Z,11.30
2022-11-23T12:11:13.575Z,11.50
2022-11-23T12:13:43.756Z,11.60
2022-11-23T12:17:10.212Z,11.50
2022-11-23T12:19:38.034Z,11.60
2022-11-23T12:22:22.840Z,11.60
2022-11-23T12:25:11.444Z,11.60
2022-11-23T12:27:49.570Z,11.40
2022-11-23T12:30:30.104Z,11.40
2022-11-23T12:33:23.396Z,11.40
2022-11-23T12:36:17.877Z,11.60
2022-11-23T12:39:04.726Z,11.20
2022-11-23T12:41:49.784Z,11.30
2022-11-23T12:44:31.522Z,11.60
2022-11-23T12:46:58.233Z,11.70
2022-11-23T12:49:44.293Z,11.50
2022-11-23T12:52:31.414Z,11.10
2022-11-23T12:55:23.849Z,11.20
2022-11-23T12:58:00.535Z,11.40
2022-11-23T13:00:41.791Z,11.40
2022-11-23T13:03:33.554Z,11.50
2022-11-23T13:06:38.795Z,11.50
2022-11-23T13:09:42.926Z,11.30
2022-11-23T13:12:37.776Z,10.80
2022-11-23T13:15:04.442Z,10.20
2022-11-23T13:18:00.336Z,10.10
2022-11-23T13:20:27.661Z,10.00
2022-11-23T13:22:57.604Z,9.90
2022-11-23T13:25:29.755Z,9.90
2022-11-23T13:28:02.614Z,9.80
2022-11-23T13:31:07.135Z,9.80
2022-11-23T13:33:26.608Z,9.80
2022-11-23T13:36:02.169Z,9.70
2022-11-23T13:38:40.870Z,9.60
2022-11-23T13:41:33.536Z,9.50
2022-11-23T13:44:26.806Z,9.50
2022-11-23T13:47:00.465Z,9.50
2022-11-23T13:49:43.489Z,9.50
2022-11-23T13:52:26.317Z,9.50
2022-11-23T13:55:08.917Z,9.50
2022-11-23T13:57:41.273Z,9.50
2022-11-23T14:00:48.108Z,9.50
2022-11-23T14:03:43.104Z,9.40
2022-11-23T14:06:42.236Z,9.40
2022-11-23T14:09:11.360Z,9.40
2022-11-23T14:12:15.259Z,9.30
2022-11-23T14:15:09.282Z,9.30
2022-11-23T14:18:02.792Z,9.20
2022-11-23T14:20:53.895Z,9.20
2022-11-23T14:23:39.688Z,9.00
2022-11-23T14:26:27.860Z,8.90
2022-11-23T14:28:57.482Z,8.80
2022-11-23T14:32:01.050Z,8.70
2022-11-23T14:34:43.149Z,8.70
2022-11-23T14:37:41.625Z,8.70
2022-11-23T14:40:33.218Z,8.60
2022-11-23T14:43:00.898Z,8.50
2022-11-23T14:45:32.626Z,8.50
2022-11-23T14:48:32.036Z,8.40
2022-11-23T14:51:11.292Z,8.30
2022-11-23T14:53:47.007Z,8.00
2022-11-23T14:56:32.435Z,7.90
2022-11-23T14:59:14.238Z,7.70
2022-11-23T15:02:02.539Z,7.50
2022-11-23T15:04:34.827Z,7.40
2022-11-23T15:07:16.819Z,7.20
2022-11-23T15:10:05.504Z,7.00
2022-11-23T15:12:49.337Z,6.80
2022-11-23T15:15:27.674Z,6.70
2022-11-23T15:18:04.077Z,6.70
2022-11-23T15:20:35.168Z,6.60
2022-11-23T15:23:03.246Z,6.50
2022-11-23T15:25:30.151Z,6.40
2022-11-23T15:27:56.955Z,6.40
2022-11-23T15:30:29.308Z,6.30
2022-11-23T15:32:56.516Z,6.20
2022-11-23T15:35:32.859Z,6.20
2022-11-23T15:38:00.822Z,6.20
2022-11-23T15:40:36.687Z,6.20
2022-11-23T15:43:04.110Z,6.30
2022-11-23T15:45:43.575Z,6.30
2022-11-23T15:48:32.587Z,6.40
2022-11-23T15:51:05.435Z,6.50
2022-11-23T15:53:43.648Z,6.60
2022-11-23T15:56:21.603Z,6.60
2022-11-23T15:58:49.705Z,6.70
2022-11-23T16:01:17.397Z,6.80
2022-11-23T16:04:39.981Z,6.90
2022-11-23T16:07:25.162Z,6.90
2022-11-23T16:10:13.261Z,7.00
2022-11-23T16:13:28.879Z,7.00
2022-11-23T16:16:00.094Z,7.00
2022-11-23T16:18:28.572Z,7.10
2022-11-23T16:21:04.934Z,7.10
2022-11-23T16:23:55.567Z,7.10
2022-11-23T16:26:33.659Z,7.30
2022-11-23T16:29:01.321Z,7.30
2022-11-23T16:31:29.479Z,7.30
2022-11-23T16:33:56.643Z,7.30
2022-11-23T16:36:26.830Z,7.30
2022-11-23T16:38:53.765Z,7.20
2022-11-23T16:41:20.483Z,7.10
2022-11-23T16:43:53.526Z,7.10
2022-11-23T16:46:23.479Z,7.10
2022-11-23T16:48:52.323Z,7.10
2022-11-23T16:51:18.963Z,7.00
2022-11-23T16:56:37.054Z,7.00
2022-11-23T16:59:03.939Z,7.00
2022-11-23T17:01:32.707Z,6.90
2022-11-23T17:04:02.603Z,7.00
2022-11-23T17:06:29.520Z,6.90
2022-11-23T17:09:04.725Z,6.90
2022-11-23T17:11:34.328Z,6.80
2022-11-23T17:14:01.311Z,6.70
2022-11-23T17:16:31.070Z,6.60
2022-11-23T17:18:59.021Z,6.50
2022-11-23T17:21:25.819Z,6.40
2022-11-23T17:23:52.581Z,6.40
2022-11-23T17:26:32.995Z,6.30
2022-11-23T17:29:03.185Z,6.40
2022-11-23T17:31:30.151Z,6.30
2022-11-23T17:33:57.383Z,6.40
2022-11-23T17:36:30.064Z,6.30
2022-11-23T17:38:57.337Z,6.30
2022-11-23T17:41:24.168Z,6.30
2022-11-23T17:43:50.954Z,6.30
2022-11-23T17:46:23.966Z,6.20
2022-11-23T17:48:55.010Z,6.20
2022-11-23T17:51:21.747Z,6.20
2022-11-23T17:53:48.588Z,6.10
2022-11-23T17:56:20.510Z,6.10
2022-11-23T17:58:47.751Z,6.10
2022-11-23T18:01:16.596Z,6.00
2022-11-23T18:03:44.632Z,6.00
2022-11-23T18:06:15.324Z,6.00
2022-11-23T18:08:46.260Z,6.00
2022-11-23T18:11:13.813Z,6.00
2022-11-23T18:13:41.373Z,6.00
2022-11-23T18:16:08.556Z,6.00
2022-11-23T18:18:35.754Z,6.00
2022-11-23T18:21:02.819Z,5.90
2022-11-23T18:23:29.599Z,5.90
2022-11-23T18:26:14.985Z,5.90
2022-11-23T18:28:44.805Z,5.90
2022-11-23T18:31:11.783Z,5.90
2022-11-23T18:33:41.878Z,5.90
2022-11-23T18:36:10.602Z,5.90
2022-11-23T18:38:40.547Z,5.90
2022-11-23T18:41:09.974Z,5.90
2022-11-23T18:43:36.707Z,5.90
2022-11-23T18:46:08.159Z,5.90
2022-11-23T18:48:34.957Z,5.90
2022-11-23T18:51:02.973Z,5.90
2022-11-23T18:53:32.724Z,5.90
2022-11-23T18:56:04.224Z,5.90
2022-11-23T18:58:35.592Z,5.90
2022-11-23T19:01:17.942Z,5.90
2022-11-23T19:03:46.318Z,5.90
2022-11-23T19:06:14.840Z,5.90
2022-11-23T19:08:50.899Z,5.90
2022-11-23T19:11:22.793Z,5.90
2022-11-23T19:13:55.424Z,5.90
2022-11-23T19:16:31.369Z,5.90
2022-11-23T19:19:01.176Z,5.90
2022-11-23T19:21:30.219Z,5.90
2022-11-23T19:23:58.197Z,5.90
2022-11-23T19:26:26.610Z,5.90
2022-11-23T19:28:56.552Z,5.90
2022-11-23T19:31:24.278Z,5.80
2022-11-23T19:33:52.631Z,5.80
2022-11-23T19:36:22.248Z,5.80
2022-11-23T19:38:52.431Z,5.80
2022-11-23T19:41:22.949Z,5.80
2022-11-23T19:43:56.236Z,5.80
2022-11-23T19:46:31.171Z,5.80
2022-11-23T19:49:01.123Z,5.80
2022-11-23T19:51:28.314Z,5.80
2022-11-23T19:53:57.693Z,5.80
2022-11-23T19:56:28.434Z,5.80
2022-11-23T19:58:57.961Z,5.80
2022-11-23T20:01:27.062Z,5.90
2022-11-23T20:03:55.514Z,5.90
2022-11-23T20:06:26.849Z,5.90
2022-11-23T20:09:00.620Z,5.80
2022-11-23T20:11:30.327Z,5.90
2022-11-23T20:13:58.049Z,5.80
2022-11-23T20:16:26.919Z,5.90
2022-11-23T20:18:59.974Z,5.90
2022-11-23T20:21:28.563Z,5.90
2022-11-23T20:24:02.995Z,5.90
2022-11-23T20:26:31.506Z,5.80
2022-11-23T20:28:59.058Z,5.80
2022-11-23T20:31:28.726Z,5.70
2022-11-23T20:33:56.930Z,5.50
2022-11-23T20:36:25.779Z,5.30
2022-11-23T20:38:53.643Z,5.20
2022-11-23T20:41:26.441Z,5.10
2022-11-23T20:44:02.265Z,5.00
2022-11-23T20:49:20.430Z,5.00
2022-11-23T20:51:47.352Z,4.90
2022-11-23T20:54:14.022Z,4.80
2022-11-23T20:56:40.735Z,4.70
2022-11-23T20:59:07.422Z,4.50
2022-11-23T21:01:34.646Z,4.30
2022-11-23T21:04:01.571Z,4.20
2022-11-23T21:06:28.787Z,4.20
2022-11-23T21:08:55.920Z,4.30
2022-11-23T21:11:45.955Z,4.40
2022-11-23T21:14:18.222Z,4.50
2022-11-23T21:16:58.434Z,4.50
2022-11-23T21:19:37.491Z,4.40
2022-11-23T21:22:09.207Z,4.40
2022-11-23T21:24:36.506Z,4.30
2022-11-23T21:27:05.366Z,4.20
2022-11-23T21:29:33.132Z,4.10
2022-11-23T21:32:01.473Z,4.00
2022-11-23T21:34:29.695Z,4.20
2022-11-23T21:36:57.652Z,4.40
2022-11-23T21:39:24.988Z,4.60
2022-11-23T21:41:53.791Z,4.70
2022-11-23T21:44:22.026Z,4.70
2022-11-23T21:46:49.199Z,4.60
2022-11-23T21:49:18.807Z,4.40
2022-11-23T21:51:48.788Z,4.30
2022-11-23T21:54:16.234Z,4.10
2022-11-23T21:56:44.754Z,4.10
2022-11-23T21:59:12.874Z,4.00
2022-11-23T22:01:40.348Z,3.90
2022-11-23T22:04:12.458Z,3.90
2022-11-23T22:06:44.487Z,4.00
2022-11-23T22:09:15.143Z,4.20
2022-11-23T22:11:43.481Z,4.40
2022-11-23T22:14:15.483Z,4.50
2022-11-23T22:16:47.559Z,4.40
2022-11-23T22:19:16.215Z,4.40
2022-11-23T22:21:44.922Z,4.40
2022-11-23T22:24:16.320Z,4.60
2022-11-23T22:26:44.439Z,4.70
2022-11-23T22:29:14.732Z,4.70
2022-11-23T22:31:44.853Z,4.60
2022-11-23T22:34:13.287Z,4.70
2022-11-23T22:36:40.848Z,4.80
2022-11-23T22:39:11.040Z,4.80
2022-11-23T22:41:38.415Z,4.90
2022-11-23T22:44:07.549Z,4.80
2022-11-23T22:46:34.697Z,4.70
2022-11-23T22:49:01.926Z,4.70
2022-11-23T22:51:29.651Z,4.60
2022-11-23T22:54:00.588Z,4.60
2022-11-23T22:56:31.355Z,4.50
2022-11-23T22:58:58.477Z,4.50
2022-11-23T23:01:27.825Z,4.50
2022-11-23T23:03:56.431Z,4.50
2022-11-23T23:06:26.145Z,4.60
2022-11-23T23:09:00.719Z,4.50
2022-11-23T23:11:30.611Z,4.60
2022-11-23T23:13:58.227Z,4.60
2022-11-23T23:16:25.471Z,4.60
2022-11-23T23:18:54.196Z,4.50
2022-11-23T23:21:22.137Z,4.40
2022-11-23T23:23:54.259Z,4.40
2022-11-23T23:26:23.655Z,4.30
2022-11-23T23:28:55.080Z,4.20
2022-11-23T23:31:24.417Z,4.20
2022-11-23T23:33:53.465Z,4.00
2022-11-23T23:36:21.530Z,4.00
2022-11-23T23:38:48.817Z,3.80
2022-11-23T23:41:15.749Z,3.80
2022-11-23T23:43:43.012Z,3.80
2022-11-23T23:46:11.816Z,3.70
2022-11-23T23:48:42.167Z,3.70
2022-11-23T23:51:13.556Z,3.50
2022-11-23T23:53:42.919Z,3.40
2022-11-23T23:56:29.237Z,3.30
2022-11-23T23:58:57.761Z,3.30
